KBHB

Hancock County-Bar Harbor Airport

Bar Harbor, Maine, USA
METAR KBHB 251856Z AUTO 16013G23KT 10SM FEW025 OVC041 15/10 A3052 RMK AO2 SLP338 T01500100
Observed Flight Rules
Sep-25 @ 18:56 UTC (36 minutes ago) Visual Flight Rules
Wind Visibility Clouds
160° at 13 knots
 Gusting to 23 knots
10 miles
  • Few at 2,500' AGL
  • Overcast at 4,100' AGL
Temperatures Readings
Current 15°C / 59°F
Dewpoint 10°C / 50°F
Humidity 72%
Altimeter 30.52" Hg
Pressure 1033.8 hPa
Elevation 26
METAR KBHB 251856Z AUTO 16013G23KT 10SM FEW025 OVC041 15/10 A3052 RMK AO2 SLP338 T01500100
Observed Flight Rules
Sep-25 @ 18:56 UTC
(36 minutes ago)
VFR
Wind Visibility
160° at 13 knots
 Gusting to 23 knots
10 miles
Clouds
  • Few at 2,500' AGL
  • Overcast at 4,100' AGL
Temperature Dewpoint
15°C / 59°F 10°C / 50°F
Humidity Altimeter Pressure
72% 30.52" Hg 1033.8 hPa